Terminal Aerodrome Forecast
Issued by NWS Jackson, MS

Home | Current Version | Previous Version | Text Only | Print | Product List | Glossary On
Versions: 1 2 3 4 5 6 7 8 9 10 11 12 13
778
FTUS44 KJAN 251125
TAFMEI
TAF
KMEI 251125Z 2512/2612 16012KT P6SM VCSH SCT015 BKN025
     FM251500 18013KT 4SM TSRA BKN025CB BKN050
     FM251900 18013G22KT 6SM -SHRA VCTS SCT025 BKN050CB
     FM252200 18011G20KT P6SM VCTS SCT020 BKN030CB BKN250
     FM260200 18006KT P6SM VCSH SCT008 BKN020 BKN250
     FM260700 18005KT 5SM BR BKN006 BKN250=

USA.gov is the U.S. government's official web portal to all federal, state and local government web resources and services.